sensor_id;sensor_type;location;lat;lon;timestamp;temperature;humidity
21439;DHT22;10880;50.302;18.736;2022-12-07T00:01:46;8.00;64.00
21439;DHT22;10880;50.302;18.736;2022-12-07T00:04:15;8.00;64.10
21439;DHT22;10880;50.302;18.736;2022-12-07T00:06:44;8.00;64.20
21439;DHT22;10880;50.302;18.736;2022-12-07T00:09:14;8.00;64.20
21439;DHT22;10880;50.302;18.736;2022-12-07T00:11:41;8.00;64.80
21439;DHT22;10880;50.302;18.736;2022-12-07T00:14:11;8.00;64.20
21439;DHT22;10880;50.302;18.736;2022-12-07T00:16:38;8.00;64.90
21439;DHT22;10880;50.302;18.736;2022-12-07T00:19:04;8.00;64.20
21439;DHT22;10880;50.302;18.736;2022-12-07T00:21:33;8.10;64.40
21439;DHT22;10880;50.302;18.736;2022-12-07T00:26:29;8.10;64.20
21439;DHT22;10880;50.302;18.736;2022-12-07T00:29:02;8.10;64.20
21439;DHT22;10880;50.302;18.736;2022-12-07T00:31:34;8.10;64.80
21439;DHT22;10880;50.302;18.736;2022-12-07T00:34:05;8.10;64.20
21439;DHT22;10880;50.302;18.736;2022-12-07T00:36:33;8.10;64.10
21439;DHT22;10880;50.302;18.736;2022-12-07T00:39:00;8.10;64.80
21439;DHT22;10880;50.302;18.736;2022-12-07T00:41:29;8.10;64.10
21439;DHT22;10880;50.302;18.736;2022-12-07T00:43:55;8.10;64.10
21439;DHT22;10880;50.302;18.736;2022-12-07T00:46:22;8.10;64.40
21439;DHT22;10880;50.302;18.736;2022-12-07T00:48:50;8.10;64.00
21439;DHT22;10880;50.302;18.736;2022-12-07T00:51:18;8.10;64.20
21439;DHT22;10880;50.302;18.736;2022-12-07T00:53:45;8.10;64.10
21439;DHT22;10880;50.302;18.736;2022-12-07T00:56:15;8.10;64.20
21439;DHT22;10880;50.302;18.736;2022-12-07T00:58:42;8.10;63.90
21439;DHT22;10880;50.302;18.736;2022-12-07T01:01:10;8.10;64.80
21439;DHT22;10880;50.302;18.736;2022-12-07T01:06:04;8.10;64.20
21439;DHT22;10880;50.302;18.736;2022-12-07T01:08:31;8.10;64.60
21439;DHT22;10880;50.302;18.736;2022-12-07T01:11:06;8.10;64.20
21439;DHT22;10880;50.302;18.736;2022-12-07T01:13:34;8.10;64.10
21439;DHT22;10880;50.302;18.736;2022-12-07T01:16:04;8.10;64.20
21439;DHT22;10880;50.302;18.736;2022-12-07T01:18:34;8.10;64.80
21439;DHT22;10880;50.302;18.736;2022-12-07T01:21:11;8.10;64.20
21439;DHT22;10880;50.302;18.736;2022-12-07T01:23:38;8.10;64.80
21439;DHT22;10880;50.302;18.736;2022-12-07T01:26:07;8.10;64.20
21439;DHT22;10880;50.302;18.736;2022-12-07T01:28:35;8.10;64.80
21439;DHT22;10880;50.302;18.736;2022-12-07T01:31:04;8.10;64.10
21439;DHT22;10880;50.302;18.736;2022-12-07T01:33:33;8.10;64.10
21439;DHT22;10880;50.302;18.736;2022-12-07T01:36:04;8.10;64.10
21439;DHT22;10880;50.302;18.736;2022-12-07T01:38:31;8.10;64.20
21439;DHT22;10880;50.302;18.736;2022-12-07T01:40:59;8.10;64.10
21439;DHT22;10880;50.302;18.736;2022-12-07T01:43:28;8.10;64.10
21439;DHT22;10880;50.302;18.736;2022-12-07T01:45:55;8.10;64.60
21439;DHT22;10880;50.302;18.736;2022-12-07T01:48:27;8.10;64.60
21439;DHT22;10880;50.302;18.736;2022-12-07T01:50:56;8.10;64.20
21439;DHT22;10880;50.302;18.736;2022-12-07T01:55:56;8.20;64.30
21439;DHT22;10880;50.302;18.736;2022-12-07T01:58:24;8.20;65.00
21439;DHT22;10880;50.302;18.736;2022-12-07T02:00:51;8.20;64.40
21439;DHT22;10880;50.302;18.736;2022-12-07T02:06:07;8.20;65.00
21439;DHT22;10880;50.302;18.736;2022-12-07T02:08:34;8.20;64.90
21439;DHT22;10880;50.302;18.736;2022-12-07T02:11:04;8.30;64.40
21439;DHT22;10880;50.302;18.736;2022-12-07T02:13:33;8.20;64.30
21439;DHT22;10880;50.302;18.736;2022-12-07T02:18:53;8.20;64.90
21439;DHT22;10880;50.302;18.736;2022-12-07T02:21:26;8.20;64.90
21439;DHT22;10880;50.302;18.736;2022-12-07T02:29:23;8.30;65.20
21439;DHT22;10880;50.302;18.736;2022-12-07T02:32:13;8.40;65.10
21439;DHT22;10880;50.302;18.736;2022-12-07T02:34:45;8.30;65.10
21439;DHT22;10880;50.302;18.736;2022-12-07T02:41:00;8.40;65.10
21439;DHT22;10880;50.302;18.736;2022-12-07T02:43:32;8.40;65.00
21439;DHT22;10880;50.302;18.736;2022-12-07T02:48:38;8.40;64.20
21439;DHT22;10880;50.302;18.736;2022-12-07T02:53:38;8.40;64.20
21439;DHT22;10880;50.302;18.736;2022-12-07T02:56:27;8.40;64.20
21439;DHT22;10880;50.302;18.736;2022-12-07T03:07:32;8.40;64.10
21439;DHT22;10880;50.302;18.736;2022-12-07T03:16:02;8.40;64.30
21439;DHT22;10880;50.302;18.736;2022-12-07T03:18:31;8.40;64.30
21439;DHT22;10880;50.302;18.736;2022-12-07T03:21:05;8.40;64.80
21439;DHT22;10880;50.302;18.736;2022-12-07T03:23:35;8.40;64.80
21439;DHT22;10880;50.302;18.736;2022-12-07T03:26:04;8.40;64.70
21439;DHT22;10880;50.302;18.736;2022-12-07T03:28:36;8.40;64.20
21439;DHT22;10880;50.302;18.736;2022-12-07T03:31:14;8.40;64.20
21439;DHT22;10880;50.302;18.736;2022-12-07T03:33:57;8.50;64.20
21439;DHT22;10880;50.302;18.736;2022-12-07T03:37:12;8.40;64.20
21439;DHT22;10880;50.302;18.736;2022-12-07T03:44:51;8.50;64.00
21439;DHT22;10880;50.302;18.736;2022-12-07T03:47:37;8.40;64.00
21439;DHT22;10880;50.302;18.736;2022-12-07T03:50:13;8.50;64.00
21439;DHT22;10880;50.302;18.736;2022-12-07T03:52:54;8.40;64.00
21439;DHT22;10880;50.302;18.736;2022-12-07T03:55:29;8.40;64.00
21439;DHT22;10880;50.302;18.736;2022-12-07T03:58:01;8.40;64.00
21439;DHT22;10880;50.302;18.736;2022-12-07T04:00:29;8.40;64.50
21439;DHT22;10880;50.302;18.736;2022-12-07T04:02:56;8.50;64.60
21439;DHT22;10880;50.302;18.736;2022-12-07T04:05:23;8.40;64.00
21439;DHT22;10880;50.302;18.736;2022-12-07T04:07:50;8.40;64.00
21439;DHT22;10880;50.302;18.736;2022-12-07T04:10:16;8.40;64.00
21439;DHT22;10880;50.302;18.736;2022-12-07T04:12:43;8.40;64.40
21439;DHT22;10880;50.302;18.736;2022-12-07T04:15:09;8.40;64.00
21439;DHT22;10880;50.302;18.736;2022-12-07T04:20:03;8.40;64.10
21439;DHT22;10880;50.302;18.736;2022-12-07T04:24:57;8.40;64.00
21439;DHT22;10880;50.302;18.736;2022-12-07T04:34:44;8.40;63.90
21439;DHT22;10880;50.302;18.736;2022-12-07T04:37:11;8.40;63.90
21439;DHT22;10880;50.302;18.736;2022-12-07T04:39:37;8.50;63.90
21439;DHT22;10880;50.302;18.736;2022-12-07T04:42:04;8.40;63.80
21439;DHT22;10880;50.302;18.736;2022-12-07T04:46:57;8.40;63.70
21439;DHT22;10880;50.302;18.736;2022-12-07T04:49:24;8.40;63.80
21439;DHT22;10880;50.302;18.736;2022-12-07T04:51:51;5.80;62.20
21439;DHT22;10880;50.302;18.736;2022-12-07T04:56:44;8.40;63.80
21439;DHT22;10880;50.302;18.736;2022-12-07T04:59:13;8.40;63.90
21439;DHT22;10880;50.302;18.736;2022-12-07T05:01:40;8.40;64.40
21439;DHT22;10880;50.302;18.736;2022-12-07T05:04:07;8.40;63.70
21439;DHT22;10880;50.302;18.736;2022-12-07T05:06:34;8.40;63.70
21439;DHT22;10880;50.302;18.736;2022-12-07T05:09:01;8.40;63.70
21439;DHT22;10880;50.302;18.736;2022-12-07T05:11:27;8.40;63.80
21439;DHT22;10880;50.302;18.736;2022-12-07T05:14:10;8.40;63.80
21439;DHT22;10880;50.302;18.736;2022-12-07T05:16:38;8.40;63.80
21439;DHT22;10880;50.302;18.736;2022-12-07T05:24:05;8.30;63.60
21439;DHT22;10880;50.302;18.736;2022-12-07T05:31:27;8.40;63.80
21439;DHT22;10880;50.302;18.736;2022-12-07T05:36:20;8.40;63.90
21439;DHT22;10880;50.302;18.736;2022-12-07T05:41:17;8.40;63.80
21439;DHT22;10880;50.302;18.736;2022-12-07T05:44:05;8.30;63.80
21439;DHT22;10880;50.302;18.736;2022-12-07T05:48:59;8.40;63.70
21439;DHT22;10880;50.302;18.736;2022-12-07T05:51:26;8.40;63.60
21439;DHT22;10880;50.302;18.736;2022-12-07T05:53:53;8.30;63.70
21439;DHT22;10880;50.302;18.736;2022-12-07T05:56:20;8.30;63.60
21439;DHT22;10880;50.302;18.736;2022-12-07T05:58:47;8.30;63.60
21439;DHT22;10880;50.302;18.736;2022-12-07T06:01:32;8.30;64.00
21439;DHT22;10880;50.302;18.736;2022-12-07T06:08:52;8.30;63.70
21439;DHT22;10880;50.302;18.736;2022-12-07T06:11:22;8.30;63.80
21439;DHT22;10880;50.302;18.736;2022-12-07T06:14:07;8.30;64.40
21439;DHT22;10880;50.302;18.736;2022-12-07T06:21:28;8.30;63.80
21439;DHT22;10880;50.302;18.736;2022-12-07T06:26:27;8.30;63.80
21439;DHT22;10880;50.302;18.736;2022-12-07T06:31:23;8.30;63.70
21439;DHT22;10880;50.302;18.736;2022-12-07T06:33:50;8.30;63.50
21439;DHT22;10880;50.302;18.736;2022-12-07T06:36:17;8.30;63.90
21439;DHT22;10880;50.302;18.736;2022-12-07T06:41:12;8.30;63.60
21439;DHT22;10880;50.302;18.736;2022-12-07T06:43:38;8.30;63.60
21439;DHT22;10880;50.302;18.736;2022-12-07T06:46:05;8.20;63.40
21439;DHT22;10880;50.302;18.736;2022-12-07T06:48:32;8.20;63.70
21439;DHT22;10880;50.302;18.736;2022-12-07T06:50:59;8.20;63.60
21439;DHT22;10880;50.302;18.736;2022-12-07T06:53:26;8.20;63.50
21439;DHT22;10880;50.302;18.736;2022-12-07T06:55:52;8.20;63.50
21439;DHT22;10880;50.302;18.736;2022-12-07T06:58:22;8.20;63.60
21439;DHT22;10880;50.302;18.736;2022-12-07T07:00:49;8.20;63.50
21439;DHT22;10880;50.302;18.736;2022-12-07T07:03:18;8.20;64.10
21439;DHT22;10880;50.302;18.736;2022-12-07T07:05:46;8.20;63.40
21439;DHT22;10880;50.302;18.736;2022-12-07T07:08:13;8.20;63.40
21439;DHT22;10880;50.302;18.736;2022-12-07T07:10:41;8.20;63.40
21439;DHT22;10880;50.302;18.736;2022-12-07T07:20:32;8.20;63.70
21439;DHT22;10880;50.302;18.736;2022-12-07T07:22:59;8.20;63.60
21439;DHT22;10880;50.302;18.736;2022-12-07T07:25:25;8.20;63.60
21439;DHT22;10880;50.302;18.736;2022-12-07T07:27:52;8.20;64.00
21439;DHT22;10880;50.302;18.736;2022-12-07T07:30:19;8.20;63.60
21439;DHT22;10880;50.302;18.736;2022-12-07T07:32:45;8.20;63.60
21439;DHT22;10880;50.302;18.736;2022-12-07T07:35:12;8.30;63.60
21439;DHT22;10880;50.302;18.736;2022-12-07T07:40:10;8.30;63.80
21439;DHT22;10880;50.302;18.736;2022-12-07T07:42:36;8.30;63.90
21439;DHT22;10880;50.302;18.736;2022-12-07T07:45:04;8.30;63.80
21439;DHT22;10880;50.302;18.736;2022-12-07T07:47:31;8.30;64.10
21439;DHT22;10880;50.302;18.736;2022-12-07T07:49:57;8.30;63.70
21439;DHT22;10880;50.302;18.736;2022-12-07T07:52:25;8.30;63.50
21439;DHT22;10880;50.302;18.736;2022-12-07T07:54:53;8.30;63.90
21439;DHT22;10880;50.302;18.736;2022-12-07T07:59:47;8.30;63.80
21439;DHT22;10880;50.302;18.736;2022-12-07T08:02:15;8.30;63.80
21439;DHT22;10880;50.302;18.736;2022-12-07T08:04:44;8.30;63.80
21439;DHT22;10880;50.302;18.736;2022-12-07T08:07:11;8.30;63.90
21439;DHT22;10880;50.302;18.736;2022-12-07T08:14:32;8.40;63.90
21439;DHT22;10880;50.302;18.736;2022-12-07T08:19:25;8.40;63.90
21439;DHT22;10880;50.302;18.736;2022-12-07T08:21:51;8.40;64.20
21439;DHT22;10880;50.302;18.736;2022-12-07T08:24:18;8.40;63.90
21439;DHT22;10880;50.302;18.736;2022-12-07T08:26:45;8.40;63.90
21439;DHT22;10880;50.302;18.736;2022-12-07T08:29:12;10.10;64.80
21439;DHT22;10880;50.302;18.736;2022-12-07T08:34:05;8.40;63.90
21439;DHT22;10880;50.302;18.736;2022-12-07T08:36:32;8.40;63.90
21439;DHT22;10880;50.302;18.736;2022-12-07T08:38:58;8.40;64.00
21439;DHT22;10880;50.302;18.736;2022-12-07T08:41:25;8.40;64.00
21439;DHT22;10880;50.302;18.736;2022-12-07T08:43:55;8.40;64.00
21439;DHT22;10880;50.302;18.736;2022-12-07T08:48:58;8.50;64.20
21439;DHT22;10880;50.302;18.736;2022-12-07T08:53:55;8.50;64.20
21439;DHT22;10880;50.302;18.736;2022-12-07T08:56:25;8.50;64.20
21439;DHT22;10880;50.302;18.736;2022-12-07T08:58:52;8.50;64.60
21439;DHT22;10880;50.302;18.736;2022-12-07T09:01:19;8.50;64.50
21439;DHT22;10880;50.302;18.736;2022-12-07T09:03:45;8.50;63.90
21439;DHT22;10880;50.302;18.736;2022-12-07T09:06:12;8.60;64.00
21439;DHT22;10880;50.302;18.736;2022-12-07T09:08:48;8.50;64.00
21439;DHT22;10880;50.302;18.736;2022-12-07T09:11:16;8.60;64.00
21439;DHT22;10880;50.302;18.736;2022-12-07T09:16:10;8.60;64.10
21439;DHT22;10880;50.302;18.736;2022-12-07T09:18:37;8.60;64.10
21439;DHT22;10880;50.302;18.736;2022-12-07T09:21:04;8.60;64.30
21439;DHT22;10880;50.302;18.736;2022-12-07T09:23:31;8.50;64.20
21439;DHT22;10880;50.302;18.736;2022-12-07T09:26:02;8.60;64.30
21439;DHT22;10880;50.302;18.736;2022-12-07T09:28:30;8.60;64.30
21439;DHT22;10880;50.302;18.736;2022-12-07T09:30:57;8.60;64.30
21439;DHT22;10880;50.302;18.736;2022-12-07T09:33:24;8.60;64.30
21439;DHT22;10880;50.302;18.736;2022-12-07T09:35:52;8.60;64.30
21439;DHT22;10880;50.302;18.736;2022-12-07T09:38:19;8.70;64.50
21439;DHT22;10880;50.302;18.736;2022-12-07T09:40:47;8.70;64.40
21439;DHT22;10880;50.302;18.736;2022-12-07T09:43:22;8.80;64.60
21439;DHT22;10880;50.302;18.736;2022-12-07T09:45:54;8.70;64.40
21439;DHT22;10880;50.302;18.736;2022-12-07T09:48:28;8.80;64.50
21439;DHT22;10880;50.302;18.736;2022-12-07T09:50:58;8.80;64.60
21439;DHT22;10880;50.302;18.736;2022-12-07T09:53:27;8.80;64.40
21439;DHT22;10880;50.302;18.736;2022-12-07T09:55:57;8.80;65.00
21439;DHT22;10880;50.302;18.736;2022-12-07T09:58:28;8.80;64.40
21439;DHT22;10880;50.302;18.736;2022-12-07T10:01:00;8.80;64.40
21439;DHT22;10880;50.302;18.736;2022-12-07T10:03:27;8.80;64.40
21439;DHT22;10880;50.302;18.736;2022-12-07T10:05:55;8.80;64.30
21439;DHT22;10880;50.302;18.736;2022-12-07T10:08:25;8.90;64.40
21439;DHT22;10880;50.302;18.736;2022-12-07T10:10:55;8.90;64.40
21439;DHT22;10880;50.302;18.736;2022-12-07T10:13:41;8.80;64.40
21439;DHT22;10880;50.302;18.736;2022-12-07T10:18:50;8.90;64.50
21439;DHT22;10880;50.302;18.736;2022-12-07T10:21:23;8.90;64.60
21439;DHT22;10880;50.302;18.736;2022-12-07T10:31:42;8.90;64.70
21439;DHT22;10880;50.302;18.736;2022-12-07T10:34:37;8.90;64.60
21439;DHT22;10880;50.302;18.736;2022-12-07T10:42:24;8.90;64.60
21439;DHT22;10880;50.302;18.736;2022-12-07T10:45:17;9.00;64.80
21439;DHT22;10880;50.302;18.736;2022-12-07T11:02:36;9.00;65.20
21439;DHT22;10880;50.302;18.736;2022-12-07T11:05:22;9.00;65.20
21439;DHT22;10880;50.302;18.736;2022-12-07T11:08:09;10.20;65.80
21439;DHT22;10880;50.302;18.736;2022-12-07T11:18:40;9.10;64.80
21439;DHT22;10880;50.302;18.736;2022-12-07T11:23:46;9.10;64.70
21439;DHT22;10880;50.302;18.736;2022-12-07T11:37:23;9.20;64.80
21439;DHT22;10880;50.302;18.736;2022-12-07T11:40:01;9.20;64.80
21439;DHT22;10880;50.302;18.736;2022-12-07T11:42:35;9.20;65.30
21439;DHT22;10880;50.302;18.736;2022-12-07T11:45:18;9.20;64.80
21439;DHT22;10880;50.302;18.736;2022-12-07T11:47:57;9.30;65.40
21439;DHT22;10880;50.302;18.736;2022-12-07T11:50:37;9.30;65.40
21439;DHT22;10880;50.302;18.736;2022-12-07T12:03:53;9.40;64.80
21439;DHT22;10880;50.302;18.736;2022-12-07T12:06:22;9.30;64.70
21439;DHT22;10880;50.302;18.736;2022-12-07T12:08:59;9.30;64.70
21439;DHT22;10880;50.302;18.736;2022-12-07T12:19:44;9.40;65.40
21439;DHT22;10880;50.302;18.736;2022-12-07T12:22:37;9.40;65.30
21439;DHT22;10880;50.302;18.736;2022-12-07T12:25:07;9.50;64.60
21439;DHT22;10880;50.302;18.736;2022-12-07T12:27:39;9.50;64.40
21439;DHT22;10880;50.302;18.736;2022-12-07T12:30:25;9.40;64.40
21439;DHT22;10880;50.302;18.736;2022-12-07T12:46:56;9.40;64.20
21439;DHT22;10880;50.302;18.736;2022-12-07T12:59:30;9.50;64.30
21439;DHT22;10880;50.302;18.736;2022-12-07T13:02:09;9.50;64.20
21439;DHT22;10880;50.302;18.736;2022-12-07T13:05:01;9.50;64.10
21439;DHT22;10880;50.302;18.736;2022-12-07T13:26:15;9.50;63.80
21439;DHT22;10880;50.302;18.736;2022-12-07T13:28:46;9.40;63.60
21439;DHT22;10880;50.302;18.736;2022-12-07T13:33:48;9.40;64.20
21439;DHT22;10880;50.302;18.736;2022-12-07T13:36:25;9.40;63.70
21439;DHT22;10880;50.302;18.736;2022-12-07T13:38:58;9.40;63.60
21439;DHT22;10880;50.302;18.736;2022-12-07T13:41:29;9.40;64.20
21439;DHT22;10880;50.302;18.736;2022-12-07T13:44:02;9.40;64.00
21439;DHT22;10880;50.302;18.736;2022-12-07T13:49:41;9.50;64.20
21439;DHT22;10880;50.302;18.736;2022-12-07T13:52:16;9.50;63.60
21439;DHT22;10880;50.302;18.736;2022-12-07T13:55:17;9.50;64.00
21439;DHT22;10880;50.302;18.736;2022-12-07T13:57:36;9.50;64.00
21439;DHT22;10880;50.302;18.736;2022-12-07T14:00:05;9.50;63.60
21439;DHT22;10880;50.302;18.736;2022-12-07T14:02:34;9.50;63.90
21439;DHT22;10880;50.302;18.736;2022-12-07T14:05:23;9.50;63.80
21439;DHT22;10880;50.302;18.736;2022-12-07T14:08:00;9.50;63.80
21439;DHT22;10880;50.302;18.736;2022-12-07T14:10:34;9.50;63.90
21439;DHT22;10880;50.302;18.736;2022-12-07T14:13:03;9.50;63.20
21439;DHT22;10880;50.302;18.736;2022-12-07T14:15:33;9.50;63.20
21439;DHT22;10880;50.302;18.736;2022-12-07T14:18:02;9.50;63.20
21439;DHT22;10880;50.302;18.736;2022-12-07T14:22:57;9.40;63.00
21439;DHT22;10880;50.302;18.736;2022-12-07T14:25:27;9.50;63.10
21439;DHT22;10880;50.302;18.736;2022-12-07T14:27:57;9.50;63.70
21439;DHT22;10880;50.302;18.736;2022-12-07T14:30:30;9.50;63.70
21439;DHT22;10880;50.302;18.736;2022-12-07T14:35:30;9.50;62.90
21439;DHT22;10880;50.302;18.736;2022-12-07T14:40:27;9.40;62.80
21439;DHT22;10880;50.302;18.736;2022-12-07T14:43:05;9.40;62.80
21439;DHT22;10880;50.302;18.736;2022-12-07T14:45:32;9.40;62.80
21439;DHT22;10880;50.302;18.736;2022-12-07T14:47:59;9.40;62.70
21439;DHT22;10880;50.302;18.736;2022-12-07T14:50:25;9.40;62.80
21439;DHT22;10880;50.302;18.736;2022-12-07T14:52:56;9.40;62.80
21439;DHT22;10880;50.302;18.736;2022-12-07T14:55:27;9.40;62.80
21439;DHT22;10880;50.302;18.736;2022-12-07T14:57:54;9.40;62.80
21439;DHT22;10880;50.302;18.736;2022-12-07T15:00:23;9.40;62.60
21439;DHT22;10880;50.302;18.736;2022-12-07T15:02:51;9.40;62.80
21439;DHT22;10880;50.302;18.736;2022-12-07T15:05:18;9.40;62.60
21439;DHT22;10880;50.302;18.736;2022-12-07T15:07:46;9.40;63.10
21439;DHT22;10880;50.302;18.736;2022-12-07T15:10:27;9.40;62.60
21439;DHT22;10880;50.302;18.736;2022-12-07T15:12:59;9.40;63.10
21439;DHT22;10880;50.302;18.736;2022-12-07T15:18:17;9.30;62.40
21439;DHT22;10880;50.302;18.736;2022-12-07T15:20:44;9.30;62.90
21439;DHT22;10880;50.302;18.736;2022-12-07T15:23:12;9.30;62.30
21439;DHT22;10880;50.302;18.736;2022-12-07T15:25:43;9.20;62.30
21439;DHT22;10880;50.302;18.736;2022-12-07T15:30:38;9.20;62.30
21439;DHT22;10880;50.302;18.736;2022-12-07T15:33:05;9.20;62.40
21439;DHT22;10880;50.302;18.736;2022-12-07T15:35:31;9.20;62.30
21439;DHT22;10880;50.302;18.736;2022-12-07T15:38:08;9.20;62.80
21439;DHT22;10880;50.302;18.736;2022-12-07T15:40:35;9.20;62.30
21439;DHT22;10880;50.302;18.736;2022-12-07T15:43:02;8.90;62.00
21439;DHT22;10880;50.302;18.736;2022-12-07T15:45:29;9.20;62.30
21439;DHT22;10880;50.302;18.736;2022-12-07T15:47:55;9.20;62.30
21439;DHT22;10880;50.302;18.736;2022-12-07T15:57:46;9.10;62.10
21439;DHT22;10880;50.302;18.736;2022-12-07T16:00:13;9.10;62.10
21439;DHT22;10880;50.302;18.736;2022-12-07T16:02:40;9.10;62.40
21439;DHT22;10880;50.302;18.736;2022-12-07T16:05:07;9.00;62.00
21439;DHT22;10880;50.302;18.736;2022-12-07T16:12:27;9.00;62.00
21439;DHT22;10880;50.302;18.736;2022-12-07T16:17:21;9.00;62.00
21439;DHT22;10880;50.302;18.736;2022-12-07T16:19:47;9.00;62.10
21439;DHT22;10880;50.302;18.736;2022-12-07T16:22:14;9.00;61.90
21439;DHT22;10880;50.302;18.736;2022-12-07T16:24:41;8.90;61.70
21439;DHT22;10880;50.302;18.736;2022-12-07T16:27:07;8.90;61.80
21439;DHT22;10880;50.302;18.736;2022-12-07T16:29:35;8.90;61.80
21439;DHT22;10880;50.302;18.736;2022-12-07T16:34:30;8.90;62.10
21439;DHT22;10880;50.302;18.736;2022-12-07T16:36:57;8.90;62.10
21439;DHT22;10880;50.302;18.736;2022-12-07T16:41:53;8.90;62.10
21439;DHT22;10880;50.302;18.736;2022-12-07T16:44:19;8.90;62.10
21439;DHT22;10880;50.302;18.736;2022-12-07T16:46:50;8.90;62.30
21439;DHT22;10880;50.302;18.736;2022-12-07T16:51:49;8.90;62.20
21439;DHT22;10880;50.302;18.736;2022-12-07T16:54:20;8.90;62.10
21439;DHT22;10880;50.302;18.736;2022-12-07T17:04:08;8.90;62.10
21439;DHT22;10880;50.302;18.736;2022-12-07T17:06:37;8.90;62.10
21439;DHT22;10880;50.302;18.736;2022-12-07T17:09:07;8.90;62.10
21439;DHT22;10880;50.302;18.736;2022-12-07T17:11:46;8.90;62.10
21439;DHT22;10880;50.302;18.736;2022-12-07T17:14:12;8.90;62.70
21439;DHT22;10880;50.302;18.736;2022-12-07T17:16:57;8.90;62.70
21439;DHT22;10880;50.302;18.736;2022-12-07T17:19:25;8.90;63.00
21439;DHT22;10880;50.302;18.736;2022-12-07T17:21:53;8.90;62.70
21439;DHT22;10880;50.302;18.736;2022-12-07T17:24:19;8.90;62.20
21439;DHT22;10880;50.302;18.736;2022-12-07T17:26:46;8.90;62.40
21439;DHT22;10880;50.302;18.736;2022-12-07T17:29:14;8.90;61.90
21439;DHT22;10880;50.302;18.736;2022-12-07T17:31:44;8.90;62.00
21439;DHT22;10880;50.302;18.736;2022-12-07T17:34:14;8.90;61.90
21439;DHT22;10880;50.302;18.736;2022-12-07T17:36:43;8.90;61.90
21439;DHT22;10880;50.302;18.736;2022-12-07T17:39:17;8.90;61.90
21439;DHT22;10880;50.302;18.736;2022-12-07T17:41:45;8.90;61.90
21439;DHT22;10880;50.302;18.736;2022-12-07T17:44:31;8.90;62.40
21439;DHT22;10880;50.302;18.736;2022-12-07T17:46:58;8.90;61.80
21439;DHT22;10880;50.302;18.736;2022-12-07T17:49:25;8.90;61.70
21439;DHT22;10880;50.302;18.736;2022-12-07T17:51:54;8.90;61.70
21439;DHT22;10880;50.302;18.736;2022-12-07T18:07:08;8.80;61.70
21439;DHT22;10880;50.302;18.736;2022-12-07T18:09:35;8.90;61.70
21439;DHT22;10880;50.302;18.736;2022-12-07T18:14:30;8.80;61.80
21439;DHT22;10880;50.302;18.736;2022-12-07T18:16:59;8.80;61.80
21439;DHT22;10880;50.302;18.736;2022-12-07T18:26:52;8.80;61.50
21439;DHT22;10880;50.302;18.736;2022-12-07T18:31:48;8.80;61.70
21439;DHT22;10880;50.302;18.736;2022-12-07T18:34:17;8.80;61.70
21439;DHT22;10880;50.302;18.736;2022-12-07T18:36:48;8.80;61.70
21439;DHT22;10880;50.302;18.736;2022-12-07T18:39:16;8.80;61.70
21439;DHT22;10880;50.302;18.736;2022-12-07T18:41:46;8.80;61.70
21439;DHT22;10880;50.302;18.736;2022-12-07T18:44:17;9.00;61.90
21439;DHT22;10880;50.302;18.736;2022-12-07T18:46:44;8.80;62.30
21439;DHT22;10880;50.302;18.736;2022-12-07T18:49:11;8.80;61.70
21439;DHT22;10880;50.302;18.736;2022-12-07T18:51:38;8.80;62.10
21439;DHT22;10880;50.302;18.736;2022-12-07T18:59:01;8.80;61.90
21439;DHT22;10880;50.302;18.736;2022-12-07T19:01:50;8.80;61.80
21439;DHT22;10880;50.302;18.736;2022-12-07T19:04:18;8.80;61.60
21439;DHT22;10880;50.302;18.736;2022-12-07T19:06:46;8.80;62.10
21439;DHT22;10880;50.302;18.736;2022-12-07T19:09:14;8.80;61.50
21439;DHT22;10880;50.302;18.736;2022-12-07T19:11:41;8.80;62.20
21439;DHT22;10880;50.302;18.736;2022-12-07T19:14:27;8.80;62.10
21439;DHT22;10880;50.302;18.736;2022-12-07T19:16:57;8.80;61.50
21439;DHT22;10880;50.302;18.736;2022-12-07T19:19:32;8.80;61.50
21439;DHT22;10880;50.302;18.736;2022-12-07T19:22:00;8.80;62.20
21439;DHT22;10880;50.302;18.736;2022-12-07T19:24:28;8.80;61.40
21439;DHT22;10880;50.302;18.736;2022-12-07T19:26:58;8.80;62.10
21439;DHT22;10880;50.302;18.736;2022-12-07T19:29:26;8.80;62.00
21439;DHT22;10880;50.302;18.736;2022-12-07T19:34:26;8.80;61.40
21439;DHT22;10880;50.302;18.736;2022-12-07T19:36:54;8.80;61.50
21439;DHT22;10880;50.302;18.736;2022-12-07T19:39:23;8.80;62.10
21439;DHT22;10880;50.302;18.736;2022-12-07T19:41:53;8.70;61.80
21439;DHT22;10880;50.302;18.736;2022-12-07T19:44:25;8.60;61.90
21439;DHT22;10880;50.302;18.736;2022-12-07T19:46:57;8.80;61.90
21439;DHT22;10880;50.302;18.736;2022-12-07T19:49:29;8.70;62.30
21439;DHT22;10880;50.302;18.736;2022-12-07T19:51:59;8.70;61.50
21439;DHT22;10880;50.302;18.736;2022-12-07T19:54:32;8.70;61.40
21439;DHT22;10880;50.302;18.736;2022-12-07T19:57:05;8.80;61.40
21439;DHT22;10880;50.302;18.736;2022-12-07T19:59:36;8.70;61.90
21439;DHT22;10880;50.302;18.736;2022-12-07T20:02:05;8.90;61.90
21439;DHT22;10880;50.302;18.736;2022-12-07T20:04:33;8.70;61.20
21439;DHT22;10880;50.302;18.736;2022-12-07T20:07:01;8.70;61.10
21439;DHT22;10880;50.302;18.736;2022-12-07T20:09:28;8.70;61.10
21439;DHT22;10880;50.302;18.736;2022-12-07T20:11:54;8.70;61.30
21439;DHT22;10880;50.302;18.736;2022-12-07T20:14:41;8.70;61.50
21439;DHT22;10880;50.302;18.736;2022-12-07T20:17:08;8.60;61.50
21439;DHT22;10880;50.302;18.736;2022-12-07T20:19:36;8.60;61.50
21439;DHT22;10880;50.302;18.736;2022-12-07T20:22:04;8.60;61.20
21439;DHT22;10880;50.302;18.736;2022-12-07T20:24:31;8.60;61.30
21439;DHT22;10880;50.302;18.736;2022-12-07T20:29:26;8.60;61.30
21439;DHT22;10880;50.302;18.736;2022-12-07T20:31:56;8.50;61.30
21439;DHT22;10880;50.302;18.736;2022-12-07T20:34:23;8.50;61.90
21439;DHT22;10880;50.302;18.736;2022-12-07T20:36:52;8.50;61.40
21439;DHT22;10880;50.302;18.736;2022-12-07T20:39:21;8.50;61.50
21439;DHT22;10880;50.302;18.736;2022-12-07T20:41:50;8.50;62.20
21439;DHT22;10880;50.302;18.736;2022-12-07T20:44:49;8.50;61.70
21439;DHT22;10880;50.302;18.736;2022-12-07T20:47:15;8.50;62.10
21439;DHT22;10880;50.302;18.736;2022-12-07T20:49:42;8.50;61.80
21439;DHT22;10880;50.302;18.736;2022-12-07T20:52:08;8.50;62.10
21439;DHT22;10880;50.302;18.736;2022-12-07T20:54:35;8.50;61.90
21439;DHT22;10880;50.302;18.736;2022-12-07T20:57:02;8.50;62.20
21439;DHT22;10880;50.302;18.736;2022-12-07T20:59:29;8.50;62.20
21439;DHT22;10880;50.302;18.736;2022-12-07T21:01:56;8.50;62.20
21439;DHT22;10880;50.302;18.736;2022-12-07T21:04:23;8.50;61.80
21439;DHT22;10880;50.302;18.736;2022-12-07T21:06:49;8.50;62.00
21439;DHT22;10880;50.302;18.736;2022-12-07T21:09:15;8.50;61.90
21439;DHT22;10880;50.302;18.736;2022-12-07T21:11:42;8.50;61.90
21439;DHT22;10880;50.302;18.736;2022-12-07T21:16:36;8.50;61.70